sensor_id;sensor_type;location;lat;lon;timestamp;temperature;humidity
39079;DHT22;24829;49.208;12.080;2023-06-22T00:00:27;19.70;99.90
39079;DHT22;24829;49.208;12.080;2023-06-22T00:02:52;19.70;99.90
39079;DHT22;24829;49.208;12.080;2023-06-22T00:05:18;19.60;99.90
39079;DHT22;24829;49.208;12.080;2023-06-22T00:07:44;19.60;99.90
39079;DHT22;24829;49.208;12.080;2023-06-22T00:10:09;19.60;99.90
39079;DHT22;24829;49.208;12.080;2023-06-22T00:12:35;19.50;99.90
39079;DHT22;24829;49.208;12.080;2023-06-22T00:15:00;19.50;99.90
39079;DHT22;24829;49.208;12.080;2023-06-22T00:17:26;19.50;99.90
39079;DHT22;24829;49.208;12.080;2023-06-22T00:19:51;19.40;99.90
39079;DHT22;24829;49.208;12.080;2023-06-22T00:22:19;19.40;99.90
39079;DHT22;24829;49.208;12.080;2023-06-22T00:24:54;19.30;99.90
39079;DHT22;24829;49.208;12.080;2023-06-22T00:27:19;19.30;99.90
39079;DHT22;24829;49.208;12.080;2023-06-22T00:29:45;19.20;99.90
39079;DHT22;24829;49.208;12.080;2023-06-22T00:32:10;19.20;99.90
39079;DHT22;24829;49.208;12.080;2023-06-22T00:34:36;19.20;99.90
39079;DHT22;24829;49.208;12.080;2023-06-22T00:37:01;19.20;99.90
39079;DHT22;24829;49.208;12.080;2023-06-22T00:39:27;19.30;99.90
39079;DHT22;24829;49.208;12.080;2023-06-22T00:41:53;19.30;99.90
39079;DHT22;24829;49.208;12.080;2023-06-22T00:44:18;19.40;99.90
39079;DHT22;24829;49.208;12.080;2023-06-22T00:46:44;19.30;99.90
39079;DHT22;24829;49.208;12.080;2023-06-22T00:49:10;19.40;99.90
39079;DHT22;24829;49.208;12.080;2023-06-22T00:51:35;19.40;99.90
39079;DHT22;24829;49.208;12.080;2023-06-22T00:54:04;19.40;99.90
39079;DHT22;24829;49.208;12.080;2023-06-22T00:56:30;19.40;99.90
39079;DHT22;24829;49.208;12.080;2023-06-22T00:58:58;19.40;99.90
39079;DHT22;24829;49.208;12.080;2023-06-22T01:01:24;19.50;99.90
39079;DHT22;24829;49.208;12.080;2023-06-22T01:03:50;19.60;99.90
39079;DHT22;24829;49.208;12.080;2023-06-22T01:06:21;19.60;99.90
39079;DHT22;24829;49.208;12.080;2023-06-22T01:09:00;19.60;99.90
39079;DHT22;24829;49.208;12.080;2023-06-22T01:11:36;19.60;99.90
39079;DHT22;24829;49.208;12.080;2023-06-22T01:14:08;19.60;99.90
39079;DHT22;24829;49.208;12.080;2023-06-22T01:16:40;19.60;99.90
39079;DHT22;24829;49.208;12.080;2023-06-22T01:21:39;19.60;99.90
39079;DHT22;24829;49.208;12.080;2023-06-22T01:24:18;19.60;99.90
39079;DHT22;24829;49.208;12.080;2023-06-22T01:29:33;19.50;99.90
39079;DHT22;24829;49.208;12.080;2023-06-22T01:32:00;19.50;99.90
39079;DHT22;24829;49.208;12.080;2023-06-22T01:34:27;19.40;99.90
39079;DHT22;24829;49.208;12.080;2023-06-22T01:36:54;19.40;99.90
39079;DHT22;24829;49.208;12.080;2023-06-22T01:39:20;19.30;99.90
39079;DHT22;24829;49.208;12.080;2023-06-22T01:41:48;19.30;99.90
39079;DHT22;24829;49.208;12.080;2023-06-22T01:44:13;19.20;99.90
39079;DHT22;24829;49.208;12.080;2023-06-22T01:46:39;19.20;99.90
39079;DHT22;24829;49.208;12.080;2023-06-22T01:49:06;19.20;99.90
39079;DHT22;24829;49.208;12.080;2023-06-22T01:51:31;19.20;99.90
39079;DHT22;24829;49.208;12.080;2023-06-22T01:53:57;19.10;99.90
39079;DHT22;24829;49.208;12.080;2023-06-22T01:56:23;19.10;99.90
39079;DHT22;24829;49.208;12.080;2023-06-22T01:58:54;19.00;99.90
39079;DHT22;24829;49.208;12.080;2023-06-22T02:01:24;19.00;99.90
39079;DHT22;24829;49.208;12.080;2023-06-22T02:04:24;19.10;99.90
39079;DHT22;24829;49.208;12.080;2023-06-22T02:06:56;19.00;99.90
39079;DHT22;24829;49.208;12.080;2023-06-22T02:09:23;19.00;99.90
39079;DHT22;24829;49.208;12.080;2023-06-22T02:11:52;18.90;99.90
39079;DHT22;24829;49.208;12.080;2023-06-22T02:14:21;18.90;99.90
39079;DHT22;24829;49.208;12.080;2023-06-22T02:16:47;18.90;99.90
39079;DHT22;24829;49.208;12.080;2023-06-22T02:19:13;18.90;99.90
39079;DHT22;24829;49.208;12.080;2023-06-22T02:21:44;18.90;99.90
39079;DHT22;24829;49.208;12.080;2023-06-22T02:24:12;18.90;99.90
39079;DHT22;24829;49.208;12.080;2023-06-22T02:26:38;18.80;99.90
39079;DHT22;24829;49.208;12.080;2023-06-22T02:29:07;18.70;99.90
39079;DHT22;24829;49.208;12.080;2023-06-22T02:31:33;18.70;99.90
39079;DHT22;24829;49.208;12.080;2023-06-22T02:33:59;18.60;99.90
39079;DHT22;24829;49.208;12.080;2023-06-22T02:36:25;18.60;99.90
39079;DHT22;24829;49.208;12.080;2023-06-22T02:38:52;18.60;99.90
39079;DHT22;24829;49.208;12.080;2023-06-22T02:41:18;18.60;99.90
39079;DHT22;24829;49.208;12.080;2023-06-22T02:43:45;18.60;99.90
39079;DHT22;24829;49.208;12.080;2023-06-22T02:46:11;18.50;99.90
39079;DHT22;24829;49.208;12.080;2023-06-22T02:48:38;18.50;99.90
39079;DHT22;24829;49.208;12.080;2023-06-22T02:51:04;18.50;99.90
39079;DHT22;24829;49.208;12.080;2023-06-22T02:53:29;18.60;99.90
39079;DHT22;24829;49.208;12.080;2023-06-22T02:55:56;18.50;99.90
39079;DHT22;24829;49.208;12.080;2023-06-22T02:58:21;18.60;99.90
39079;DHT22;24829;49.208;12.080;2023-06-22T03:00:47;18.60;99.90
39079;DHT22;24829;49.208;12.080;2023-06-22T03:03:12;18.70;99.90
39079;DHT22;24829;49.208;12.080;2023-06-22T03:05:38;18.70;99.90
39079;DHT22;24829;49.208;12.080;2023-06-22T03:08:05;18.80;99.90
39079;DHT22;24829;49.208;12.080;2023-06-22T03:10:31;18.90;99.90
39079;DHT22;24829;49.208;12.080;2023-06-22T03:12:56;18.90;99.90
39079;DHT22;24829;49.208;12.080;2023-06-22T03:15:22;19.00;99.90
39079;DHT22;24829;49.208;12.080;2023-06-22T03:17:47;19.00;99.90
39079;DHT22;24829;49.208;12.080;2023-06-22T03:20:13;18.90;99.90
39079;DHT22;24829;49.208;12.080;2023-06-22T03:22:39;18.90;99.90
39079;DHT22;24829;49.208;12.080;2023-06-22T03:25:06;18.90;99.90
39079;DHT22;24829;49.208;12.080;2023-06-22T03:27:39;18.80;99.90
39079;DHT22;24829;49.208;12.080;2023-06-22T03:30:06;18.80;99.90
39079;DHT22;24829;49.208;12.080;2023-06-22T03:32:32;18.80;99.90
39079;DHT22;24829;49.208;12.080;2023-06-22T03:34:57;18.80;99.90
39079;DHT22;24829;49.208;12.080;2023-06-22T03:37:25;18.90;99.90
39079;DHT22;24829;49.208;12.080;2023-06-22T03:39:51;18.80;99.90
39079;DHT22;24829;49.208;12.080;2023-06-22T03:42:16;18.80;99.90
39079;DHT22;24829;49.208;12.080;2023-06-22T03:44:42;18.80;99.90
39079;DHT22;24829;49.208;12.080;2023-06-22T03:47:07;18.70;99.90
39079;DHT22;24829;49.208;12.080;2023-06-22T03:49:34;18.60;99.90
39079;DHT22;24829;49.208;12.080;2023-06-22T03:52:03;18.60;99.90
39079;DHT22;24829;49.208;12.080;2023-06-22T03:54:29;18.50;99.90
39079;DHT22;24829;49.208;12.080;2023-06-22T03:56:56;18.50;99.90
39079;DHT22;24829;49.208;12.080;2023-06-22T03:59:22;18.60;99.90
39079;DHT22;24829;49.208;12.080;2023-06-22T04:01:47;18.60;99.90
39079;DHT22;24829;49.208;12.080;2023-06-22T04:04:13;18.70;99.90
39079;DHT22;24829;49.208;12.080;2023-06-22T04:06:38;18.60;99.90
39079;DHT22;24829;49.208;12.080;2023-06-22T04:09:06;18.60;99.90
39079;DHT22;24829;49.208;12.080;2023-06-22T04:11:31;18.60;99.90
39079;DHT22;24829;49.208;12.080;2023-06-22T04:13:57;18.60;99.90
39079;DHT22;24829;49.208;12.080;2023-06-22T04:16:23;18.60;99.90
39079;DHT22;24829;49.208;12.080;2023-06-22T04:18:48;18.50;99.90
39079;DHT22;24829;49.208;12.080;2023-06-22T04:21:14;18.50;99.90
39079;DHT22;24829;49.208;12.080;2023-06-22T04:23:39;18.40;99.90
39079;DHT22;24829;49.208;12.080;2023-06-22T04:26:05;18.30;99.90
39079;DHT22;24829;49.208;12.080;2023-06-22T04:28:30;18.30;99.90
39079;DHT22;24829;49.208;12.080;2023-06-22T04:31:03;18.30;99.90
39079;DHT22;24829;49.208;12.080;2023-06-22T04:33:29;18.30;99.90
39079;DHT22;24829;49.208;12.080;2023-06-22T04:35:55;18.40;99.90
39079;DHT22;24829;49.208;12.080;2023-06-22T04:38:24;18.30;99.90
39079;DHT22;24829;49.208;12.080;2023-06-22T04:40:50;18.30;99.90
39079;DHT22;24829;49.208;12.080;2023-06-22T04:43:16;18.40;99.90
39079;DHT22;24829;49.208;12.080;2023-06-22T04:45:42;18.50;99.90
39079;DHT22;24829;49.208;12.080;2023-06-22T04:48:07;18.50;99.90
39079;DHT22;24829;49.208;12.080;2023-06-22T04:50:41;18.40;99.90
39079;DHT22;24829;49.208;12.080;2023-06-22T04:53:07;18.40;99.90
39079;DHT22;24829;49.208;12.080;2023-06-22T04:55:34;18.50;99.90
39079;DHT22;24829;49.208;12.080;2023-06-22T04:58:03;18.50;99.90
39079;DHT22;24829;49.208;12.080;2023-06-22T05:00:30;18.60;99.90
39079;DHT22;24829;49.208;12.080;2023-06-22T05:02:56;18.70;99.90
39079;DHT22;24829;49.208;12.080;2023-06-22T05:05:23;18.70;99.90
39079;DHT22;24829;49.208;12.080;2023-06-22T05:07:50;18.70;99.90
39079;DHT22;24829;49.208;12.080;2023-06-22T05:10:19;18.80;99.90
39079;DHT22;24829;49.208;12.080;2023-06-22T05:12:45;18.90;99.90
39079;DHT22;24829;49.208;12.080;2023-06-22T05:15:11;19.00;99.90
39079;DHT22;24829;49.208;12.080;2023-06-22T05:17:37;19.00;99.90
39079;DHT22;24829;49.208;12.080;2023-06-22T05:20:09;19.10;99.90
39079;DHT22;24829;49.208;12.080;2023-06-22T05:22:34;19.20;99.90
39079;DHT22;24829;49.208;12.080;2023-06-22T05:25:00;19.20;99.90
39079;DHT22;24829;49.208;12.080;2023-06-22T05:27:26;19.30;99.90
39079;DHT22;24829;49.208;12.080;2023-06-22T05:29:51;19.30;99.90
39079;DHT22;24829;49.208;12.080;2023-06-22T05:32:17;19.40;99.90
39079;DHT22;24829;49.208;12.080;2023-06-22T05:34:42;19.50;99.90
39079;DHT22;24829;49.208;12.080;2023-06-22T05:37:08;19.50;99.90
39079;DHT22;24829;49.208;12.080;2023-06-22T05:39:35;19.50;99.90
39079;DHT22;24829;49.208;12.080;2023-06-22T05:42:04;19.70;99.90
39079;DHT22;24829;49.208;12.080;2023-06-22T05:44:30;19.90;99.90
39079;DHT22;24829;49.208;12.080;2023-06-22T05:46:55;20.10;99.90
39079;DHT22;24829;49.208;12.080;2023-06-22T05:49:21;20.30;99.90
39079;DHT22;24829;49.208;12.080;2023-06-22T05:51:47;20.60;99.90
39079;DHT22;24829;49.208;12.080;2023-06-22T05:54:13;21.10;99.90
39079;DHT22;24829;49.208;12.080;2023-06-22T05:56:41;21.70;99.90
39079;DHT22;24829;49.208;12.080;2023-06-22T05:59:06;22.40;99.90
39079;DHT22;24829;49.208;12.080;2023-06-22T06:01:32;22.90;99.90
39079;DHT22;24829;49.208;12.080;2023-06-22T06:04:01;23.30;99.90
39079;DHT22;24829;49.208;12.080;2023-06-22T06:06:26;23.70;99.90
39079;DHT22;24829;49.208;12.080;2023-06-22T06:08:54;24.10;99.90
39079;DHT22;24829;49.208;12.080;2023-06-22T06:11:19;24.50;99.90
39079;DHT22;24829;49.208;12.080;2023-06-22T06:13:45;24.90;99.90
39079;DHT22;24829;49.208;12.080;2023-06-22T06:16:10;25.10;99.90
39079;DHT22;24829;49.208;12.080;2023-06-22T06:18:36;25.20;99.90
39079;DHT22;24829;49.208;12.080;2023-06-22T06:21:02;25.40;99.90
39079;DHT22;24829;49.208;12.080;2023-06-22T06:23:28;25.40;99.90
39079;DHT22;24829;49.208;12.080;2023-06-22T06:25:54;25.50;99.90
39079;DHT22;24829;49.208;12.080;2023-06-22T06:28:19;25.60;99.90
39079;DHT22;24829;49.208;12.080;2023-06-22T06:30:45;25.50;99.90
39079;DHT22;24829;49.208;12.080;2023-06-22T06:33:12;25.50;99.90
39079;DHT22;24829;49.208;12.080;2023-06-22T06:35:38;25.70;99.90
39079;DHT22;24829;49.208;12.080;2023-06-22T06:38:03;25.80;99.90
39079;DHT22;24829;49.208;12.080;2023-06-22T06:40:29;26.10;99.90
39079;DHT22;24829;49.208;12.080;2023-06-22T06:42:55;26.30;99.90
39079;DHT22;24829;49.208;12.080;2023-06-22T06:45:22;26.50;99.90
39079;DHT22;24829;49.208;12.080;2023-06-22T06:47:48;26.60;99.90
39079;DHT22;24829;49.208;12.080;2023-06-22T06:50:14;26.50;99.90
39079;DHT22;24829;49.208;12.080;2023-06-22T06:52:40;26.50;99.90
39079;DHT22;24829;49.208;12.080;2023-06-22T06:55:06;26.40;99.90
39079;DHT22;24829;49.208;12.080;2023-06-22T06:57:33;26.60;99.90
39079;DHT22;24829;49.208;12.080;2023-06-22T06:59:59;26.60;99.90
39079;DHT22;24829;49.208;12.080;2023-06-22T07:02:25;26.60;99.90
39079;DHT22;24829;49.208;12.080;2023-06-22T07:04:53;26.70;99.90
39079;DHT22;24829;49.208;12.080;2023-06-22T07:07:20;26.90;99.90
39079;DHT22;24829;49.208;12.080;2023-06-22T07:09:46;27.00;99.90
39079;DHT22;24829;49.208;12.080;2023-06-22T07:12:11;27.10;99.90
39079;DHT22;24829;49.208;12.080;2023-06-22T07:14:37;27.30;99.90
39079;DHT22;24829;49.208;12.080;2023-06-22T07:17:02;27.10;99.90
39079;DHT22;24829;49.208;12.080;2023-06-22T07:19:28;27.10;99.90
39079;DHT22;24829;49.208;12.080;2023-06-22T07:21:54;27.10;99.90
39079;DHT22;24829;49.208;12.080;2023-06-22T07:24:21;27.30;99.90
39079;DHT22;24829;49.208;12.080;2023-06-22T07:26:50;27.30;99.90
39079;DHT22;24829;49.208;12.080;2023-06-22T07:29:20;27.50;99.90
39079;DHT22;24829;49.208;12.080;2023-06-22T07:31:46;27.50;99.90
39079;DHT22;24829;49.208;12.080;2023-06-22T07:34:13;27.50;99.90
39079;DHT22;24829;49.208;12.080;2023-06-22T07:36:38;27.60;99.90
39079;DHT22;24829;49.208;12.080;2023-06-22T07:39:04;27.80;99.90
39079;DHT22;24829;49.208;12.080;2023-06-22T07:41:30;27.80;99.90
39079;DHT22;24829;49.208;12.080;2023-06-22T07:43:56;27.70;99.90
39079;DHT22;24829;49.208;12.080;2023-06-22T07:46:22;27.70;99.90
39079;DHT22;24829;49.208;12.080;2023-06-22T07:48:48;27.60;99.90
39079;DHT22;24829;49.208;12.080;2023-06-22T07:51:13;27.60;99.90
39079;DHT22;24829;49.208;12.080;2023-06-22T07:53:41;27.80;99.90
39079;DHT22;24829;49.208;12.080;2023-06-22T07:56:07;28.00;99.90
39079;DHT22;24829;49.208;12.080;2023-06-22T07:58:32;28.30;99.90
39079;DHT22;24829;49.208;12.080;2023-06-22T08:00:58;28.40;99.90
39079;DHT22;24829;49.208;12.080;2023-06-22T08:03:24;28.50;99.90
39079;DHT22;24829;49.208;12.080;2023-06-22T08:05:49;28.60;99.90
39079;DHT22;24829;49.208;12.080;2023-06-22T08:08:15;28.70;99.90
39079;DHT22;24829;49.208;12.080;2023-06-22T08:10:42;28.70;99.90
39079;DHT22;24829;49.208;12.080;2023-06-22T08:13:08;28.80;99.90
39079;DHT22;24829;49.208;12.080;2023-06-22T08:15:34;29.10;99.90
39079;DHT22;24829;49.208;12.080;2023-06-22T08:17:59;29.20;99.90
39079;DHT22;24829;49.208;12.080;2023-06-22T08:20:26;29.40;99.90
39079;DHT22;24829;49.208;12.080;2023-06-22T08:22:53;29.30;99.90
39079;DHT22;24829;49.208;12.080;2023-06-22T08:25:19;29.30;99.90
39079;DHT22;24829;49.208;12.080;2023-06-22T08:27:45;29.40;99.90
39079;DHT22;24829;49.208;12.080;2023-06-22T08:30:12;29.50;99.90
39079;DHT22;24829;49.208;12.080;2023-06-22T08:32:38;29.50;99.90
39079;DHT22;24829;49.208;12.080;2023-06-22T08:35:03;29.70;99.90
39079;DHT22;24829;49.208;12.080;2023-06-22T08:37:31;29.80;99.90
39079;DHT22;24829;49.208;12.080;2023-06-22T08:39:58;29.90;99.90
39079;DHT22;24829;49.208;12.080;2023-06-22T08:42:24;30.00;99.90
39079;DHT22;24829;49.208;12.080;2023-06-22T08:44:51;29.90;99.80
39079;DHT22;24829;49.208;12.080;2023-06-22T08:47:16;29.90;99.90
39079;DHT22;24829;49.208;12.080;2023-06-22T08:49:42;30.00;99.90
39079;DHT22;24829;49.208;12.080;2023-06-22T08:52:08;30.20;99.80
39079;DHT22;24829;49.208;12.080;2023-06-22T08:54:33;30.40;98.70
39079;DHT22;24829;49.208;12.080;2023-06-22T08:57:01;30.30;98.10
39079;DHT22;24829;49.208;12.080;2023-06-22T08:59:27;30.40;98.40
39079;DHT22;24829;49.208;12.080;2023-06-22T09:01:52;30.30;98.30
39079;DHT22;24829;49.208;12.080;2023-06-22T09:04:18;30.30;98.50
39079;DHT22;24829;49.208;12.080;2023-06-22T09:06:43;30.20;98.60
39079;DHT22;24829;49.208;12.080;2023-06-22T09:09:12;30.20;98.70
39079;DHT22;24829;49.208;12.080;2023-06-22T09:11:39;30.30;97.60
39079;DHT22;24829;49.208;12.080;2023-06-22T09:14:04;30.30;97.90
39079;DHT22;24829;49.208;12.080;2023-06-22T09:16:30;30.30;97.60
39079;DHT22;24829;49.208;12.080;2023-06-22T09:18:56;30.30;97.10
39079;DHT22;24829;49.208;12.080;2023-06-22T09:21:21;30.40;97.20
39079;DHT22;24829;49.208;12.080;2023-06-22T09:23:47;30.60;97.30
39079;DHT22;24829;49.208;12.080;2023-06-22T09:26:19;30.70;96.80
39079;DHT22;24829;49.208;12.080;2023-06-22T09:28:45;30.90;96.70
39079;DHT22;24829;49.208;12.080;2023-06-22T09:31:11;31.10;96.50
39079;DHT22;24829;49.208;12.080;2023-06-22T09:33:36;31.30;96.00
39079;DHT22;24829;49.208;12.080;2023-06-22T09:36:05;31.30;95.60
39079;DHT22;24829;49.208;12.080;2023-06-22T09:38:34;31.10;95.90
39079;DHT22;24829;49.208;12.080;2023-06-22T09:41:00;31.10;96.00
39079;DHT22;24829;49.208;12.080;2023-06-22T09:43:26;31.20;95.80
39079;DHT22;24829;49.208;12.080;2023-06-22T09:45:52;31.30;95.50
39079;DHT22;24829;49.208;12.080;2023-06-22T09:48:17;31.40;95.00
39079;DHT22;24829;49.208;12.080;2023-06-22T09:50:43;31.50;95.20
39079;DHT22;24829;49.208;12.080;2023-06-22T09:53:08;31.80;94.70
39079;DHT22;24829;49.208;12.080;2023-06-22T09:55:34;31.90;94.50
39079;DHT22;24829;49.208;12.080;2023-06-22T09:57:59;32.10;93.80
39079;DHT22;24829;49.208;12.080;2023-06-22T10:00:25;32.10;93.90
39079;DHT22;24829;49.208;12.080;2023-06-22T10:02:52;32.00;93.60
39079;DHT22;24829;49.208;12.080;2023-06-22T10:05:17;31.90;93.50
39079;DHT22;24829;49.208;12.080;2023-06-22T10:07:43;31.90;93.00
39079;DHT22;24829;49.208;12.080;2023-06-22T10:10:10;32.00;93.30
39079;DHT22;24829;49.208;12.080;2023-06-22T10:12:36;32.10;93.40
39079;DHT22;24829;49.208;12.080;2023-06-22T10:15:02;32.30;92.60
39079;DHT22;24829;49.208;12.080;2023-06-22T10:17:28;32.20;92.50
39079;DHT22;24829;49.208;12.080;2023-06-22T10:19:53;32.30;92.50
39079;DHT22;24829;49.208;12.080;2023-06-22T10:22:19;32.30;92.40
39079;DHT22;24829;49.208;12.080;2023-06-22T10:24:45;32.20;92.30
39079;DHT22;24829;49.208;12.080;2023-06-22T10:27:11;32.10;92.30
39079;DHT22;24829;49.208;12.080;2023-06-22T10:29:37;32.10;92.50
39079;DHT22;24829;49.208;12.080;2023-06-22T10:32:03;32.20;92.20
39079;DHT22;24829;49.208;12.080;2023-06-22T10:34:29;32.30;92.10
39079;DHT22;24829;49.208;12.080;2023-06-22T10:36:54;32.40;92.10
39079;DHT22;24829;49.208;12.080;2023-06-22T10:39:20;32.50;91.70
39079;DHT22;24829;49.208;12.080;2023-06-22T10:41:45;32.60;91.60
39079;DHT22;24829;49.208;12.080;2023-06-22T10:44:11;32.60;92.10
39079;DHT22;24829;49.208;12.080;2023-06-22T10:46:37;32.70;91.80
39079;DHT22;24829;49.208;12.080;2023-06-22T10:49:03;33.00;91.50
39079;DHT22;24829;49.208;12.080;2023-06-22T10:51:29;33.20;91.10
39079;DHT22;24829;49.208;12.080;2023-06-22T10:53:56;33.40;90.80
39079;DHT22;24829;49.208;12.080;2023-06-22T10:56:21;33.60;90.90
39079;DHT22;24829;49.208;12.080;2023-06-22T10:58:47;33.70;90.20
39079;DHT22;24829;49.208;12.080;2023-06-22T11:01:12;33.50;89.40
39079;DHT22;24829;49.208;12.080;2023-06-22T11:03:38;33.50;88.90
39079;DHT22;24829;49.208;12.080;2023-06-22T11:06:04;33.40;90.10
39079;DHT22;24829;49.208;12.080;2023-06-22T11:08:29;33.30;88.70
39079;DHT22;24829;49.208;12.080;2023-06-22T11:10:55;33.40;89.50
39079;DHT22;24829;49.208;12.080;2023-06-22T11:13:20;33.40;88.20
39079;DHT22;24829;49.208;12.080;2023-06-22T11:15:46;33.30;87.90
39079;DHT22;24829;49.208;12.080;2023-06-22T11:18:11;33.20;87.40
39079;DHT22;24829;49.208;12.080;2023-06-22T11:20:37;33.20;87.30
39079;DHT22;24829;49.208;12.080;2023-06-22T11:23:07;33.10;88.00
39079;DHT22;24829;49.208;12.080;2023-06-22T11:25:33;33.10;87.30
39079;DHT22;24829;49.208;12.080;2023-06-22T11:28:03;33.20;87.20
39079;DHT22;24829;49.208;12.080;2023-06-22T11:30:30;33.20;87.70
39079;DHT22;24829;49.208;12.080;2023-06-22T11:32:58;33.20;87.80
39079;DHT22;24829;49.208;12.080;2023-06-22T11:35:23;33.10;87.30
39079;DHT22;24829;49.208;12.080;2023-06-22T11:37:49;33.10;86.40
39079;DHT22;24829;49.208;12.080;2023-06-22T11:40:14;33.10;86.20
39079;DHT22;24829;49.208;12.080;2023-06-22T11:42:40;33.20;86.10
39079;DHT22;24829;49.208;12.080;2023-06-22T11:45:07;33.30;84.70
39079;DHT22;24829;49.208;12.080;2023-06-22T11:47:33;33.20;83.20
39079;DHT22;24829;49.208;12.080;2023-06-22T11:49:58;33.10;83.80
39079;DHT22;24829;49.208;12.080;2023-06-22T11:52:24;33.10;83.40
39079;DHT22;24829;49.208;12.080;2023-06-22T11:54:50;33.10;83.60
39079;DHT22;24829;49.208;12.080;2023-06-22T11:57:16;33.10;83.30
39079;DHT22;24829;49.208;12.080;2023-06-22T11:59:42;33.00;85.40
39079;DHT22;24829;49.208;12.080;2023-06-22T12:02:07;32.90;86.20
39079;DHT22;24829;49.208;12.080;2023-06-22T12:04:34;32.90;86.50
39079;DHT22;24829;49.208;12.080;2023-06-22T12:07:00;32.90;86.20
39079;DHT22;24829;49.208;12.080;2023-06-22T12:09:25;33.00;86.60
39079;DHT22;24829;49.208;12.080;2023-06-22T12:11:51;33.20;85.70
39079;DHT22;24829;49.208;12.080;2023-06-22T12:14:16;33.30;84.60
39079;DHT22;24829;49.208;12.080;2023-06-22T12:16:42;33.50;84.40
39079;DHT22;24829;49.208;12.080;2023-06-22T12:19:09;33.60;81.40
39079;DHT22;24829;49.208;12.080;2023-06-22T12:21:36;33.70;81.60
39079;DHT22;24829;49.208;12.080;2023-06-22T12:24:02;33.90;82.00
39079;DHT22;24829;49.208;12.080;2023-06-22T12:26:28;33.90;83.40
39079;DHT22;24829;49.208;12.080;2023-06-22T12:28:54;33.80;83.80
39079;DHT22;24829;49.208;12.080;2023-06-22T12:31:20;33.80;81.00
39079;DHT22;24829;49.208;12.080;2023-06-22T12:33:45;33.70;79.80
39079;DHT22;24829;49.208;12.080;2023-06-22T12:36:11;33.70;79.10
39079;DHT22;24829;49.208;12.080;2023-06-22T12:38:36;33.70;79.80
39079;DHT22;24829;49.208;12.080;2023-06-22T12:41:02;33.70;80.70
39079;DHT22;24829;49.208;12.080;2023-06-22T12:43:27;33.90;79.50
39079;DHT22;24829;49.208;12.080;2023-06-22T12:45:53;33.90;79.20
39079;DHT22;24829;49.208;12.080;2023-06-22T12:48:19;33.90;80.90
39079;DHT22;24829;49.208;12.080;2023-06-22T12:50:45;33.80;79.80
39079;DHT22;24829;49.208;12.080;2023-06-22T12:53:10;33.70;78.90
39079;DHT22;24829;49.208;12.080;2023-06-22T12:55:36;33.70;79.40
39079;DHT22;24829;49.208;12.080;2023-06-22T12:58:01;33.80;82.20
39079;DHT22;24829;49.208;12.080;2023-06-22T13:00:27;33.70;80.20
39079;DHT22;24829;49.208;12.080;2023-06-22T13:02:52;33.70;82.20
39079;DHT22;24829;49.208;12.080;2023-06-22T13:05:18;33.70;82.00
39079;DHT22;24829;49.208;12.080;2023-06-22T13:07:44;33.70;81.40
39079;DHT22;24829;49.208;12.080;2023-06-22T13:10:11;33.70;81.80
39079;DHT22;24829;49.208;12.080;2023-06-22T13:12:36;33.70;81.70
39079;DHT22;24829;49.208;12.080;2023-06-22T13:15:02;33.60;80.40
39079;DHT22;24829;49.208;12.080;2023-06-22T13:17:28;33.60;81.20
39079;DHT22;24829;49.208;12.080;2023-06-22T13:19:54;33.50;81.00
39079;DHT22;24829;49.208;12.080;2023-06-22T13:22:30;33.50;81.40
39079;DHT22;24829;49.208;12.080;2023-06-22T13:24:56;33.60;81.20
39079;DHT22;24829;49.208;12.080;2023-06-22T13:27:23;33.70;80.90
39079;DHT22;24829;49.208;12.080;2023-06-22T13:29:48;33.80;79.30
39079;DHT22;24829;49.208;12.080;2023-06-22T13:32:14;33.80;79.50
39079;DHT22;24829;49.208;12.080;2023-06-22T13:34:39;33.90;78.80
39079;DHT22;24829;49.208;12.080;2023-06-22T13:37:05;33.90;79.10
39079;DHT22;24829;49.208;12.080;2023-06-22T13:39:31;33.90;79.00
39079;DHT22;24829;49.208;12.080;2023-06-22T13:45:18;34.00;78.70
39079;DHT22;24829;49.208;12.080;2023-06-22T13:47:45;34.00;78.40
39079;DHT22;24829;49.208;12.080;2023-06-22T13:50:11;34.10;78.40
39079;DHT22;24829;49.208;12.080;2023-06-22T13:52:38;34.10;80.50
39079;DHT22;24829;49.208;12.080;2023-06-22T13:55:04;34.00;80.10
39079;DHT22;24829;49.208;12.080;2023-06-22T13:57:30;33.90;80.30
39079;DHT22;24829;49.208;12.080;2023-06-22T13:59:56;33.80;79.80
39079;DHT22;24829;49.208;12.080;2023-06-22T14:02:22;33.70;80.80
39079;DHT22;24829;49.208;12.080;2023-06-22T14:04:47;33.70;81.00
39079;DHT22;24829;49.208;12.080;2023-06-22T14:07:13;33.70;81.10
39079;DHT22;24829;49.208;12.080;2023-06-22T14:09:38;33.70;81.60
39079;DHT22;24829;49.208;12.080;2023-06-22T14:12:05;33.80;80.50
39079;DHT22;24829;49.208;12.080;2023-06-22T14:14:32;33.70;79.70
39079;DHT22;24829;49.208;12.080;2023-06-22T14:16:58;33.60;79.90
39079;DHT22;24829;49.208;12.080;2023-06-22T14:19:24;33.60;79.50
39079;DHT22;24829;49.208;12.080;2023-06-22T14:21:49;33.70;80.00
39079;DHT22;24829;49.208;12.080;2023-06-22T14:24:15;33.80;78.60
39079;DHT22;24829;49.208;12.080;2023-06-22T14:26:41;33.70;78.90
39079;DHT22;24829;49.208;12.080;2023-06-22T14:29:06;33.60;79.30
39079;DHT22;24829;49.208;12.080;2023-06-22T14:31:32;33.50;78.60
39079;DHT22;24829;49.208;12.080;2023-06-22T14:33:58;33.50;80.30
39079;DHT22;24829;49.208;12.080;2023-06-22T14:36:24;33.50;80.40
39079;DHT22;24829;49.208;12.080;2023-06-22T14:38:49;33.60;80.30
39079;DHT22;24829;49.208;12.080;2023-06-22T14:41:15;33.70;79.20
39079;DHT22;24829;49.208;12.080;2023-06-22T14:43:49;33.90;80.40
39079;DHT22;24829;49.208;12.080;2023-06-22T14:46:16;34.00;78.90
39079;DHT22;24829;49.208;12.080;2023-06-22T14:48:42;34.20;78.10
39079;DHT22;24829;49.208;12.080;2023-06-22T14:51:09;34.20;78.60
39079;DHT22;24829;49.208;12.080;2023-06-22T14:53:35;34.20;78.10
39079;DHT22;24829;49.208;12.080;2023-06-22T14:56:01;34.20;78.80
39079;DHT22;24829;49.208;12.080;2023-06-22T14:58:28;34.20;78.50
39079;DHT22;24829;49.208;12.080;2023-06-22T15:00:55;34.20;78.60
39079;DHT22;24829;49.208;12.080;2023-06-22T15:03:20;34.10;79.00
39079;DHT22;24829;49.208;12.080;2023-06-22T15:05:50;33.90;79.60
39079;DHT22;24829;49.208;12.080;2023-06-22T15:08:16;33.80;80.40
39079;DHT22;24829;49.208;12.080;2023-06-22T15:10:41;33.80;80.50
39079;DHT22;24829;49.208;12.080;2023-06-22T15:13:07;33.70;80.20
39079;DHT22;24829;49.208;12.080;2023-06-22T15:15:33;33.80;80.60
39079;DHT22;24829;49.208;12.080;2023-06-22T15:17:59;33.80;80.10